sensor_id;sensor_type;location;lat;lon;timestamp;P1;durP1;ratioP1;P2;durP2;ratioP2
25657;SDS011;13517;59.320;18.042;2023-05-07T00:01:27;7.32;;;3.63;;
25657;SDS011;13517;59.320;18.042;2023-05-07T00:03:53;6.90;;;3.92;;
25657;SDS011;13517;59.320;18.042;2023-05-07T00:06:18;9.10;;;4.07;;
25657;SDS011;13517;59.320;18.042;2023-05-07T00:08:44;13.25;;;4.20;;
25657;SDS011;13517;59.320;18.042;2023-05-07T00:11:10;11.05;;;4.00;;
25657;SDS011;13517;59.320;18.042;2023-05-07T00:13:35;11.38;;;3.65;;
25657;SDS011;13517;59.320;18.042;2023-05-07T00:16:01;10.73;;;3.70;;
25657;SDS011;13517;59.320;18.042;2023-05-07T00:18:26;12.50;;;4.18;;
25657;SDS011;13517;59.320;18.042;2023-05-07T00:20:52;15.40;;;4.55;;
25657;SDS011;13517;59.320;18.042;2023-05-07T00:23:18;41.25;;;5.57;;
25657;SDS011;13517;59.320;18.042;2023-05-07T00:25:43;13.80;;;4.45;;
25657;SDS011;13517;59.320;18.042;2023-05-07T00:28:09;9.55;;;3.60;;
25657;SDS011;13517;59.320;18.042;2023-05-07T00:30:34;15.00;;;4.20;;
25657;SDS011;13517;59.320;18.042;2023-05-07T00:32:59;11.20;;;3.88;;
25657;SDS011;13517;59.320;18.042;2023-05-07T00:35:24;9.75;;;4.32;;
25657;SDS011;13517;59.320;18.042;2023-05-07T00:37:50;9.07;;;3.95;;
25657;SDS011;13517;59.320;18.042;2023-05-07T00:40:15;10.10;;;4.07;;
25657;SDS011;13517;59.320;18.042;2023-05-07T00:42:40;8.98;;;4.45;;
25657;SDS011;13517;59.320;18.042;2023-05-07T00:45:06;7.65;;;4.15;;
25657;SDS011;13517;59.320;18.042;2023-05-07T00:47:32;6.50;;;3.83;;
25657;SDS011;13517;59.320;18.042;2023-05-07T00:49:58;8.02;;;3.88;;
25657;SDS011;13517;59.320;18.042;2023-05-07T00:52:23;8.75;;;4.05;;
25657;SDS011;13517;59.320;18.042;2023-05-07T00:54:50;9.48;;;4.03;;
25657;SDS011;13517;59.320;18.042;2023-05-07T00:57:16;8.25;;;4.00;;
25657;SDS011;13517;59.320;18.042;2023-05-07T00:59:41;7.95;;;4.10;;
25657;SDS011;13517;59.320;18.042;2023-05-07T01:02:07;5.75;;;3.85;;
25657;SDS011;13517;59.320;18.042;2023-05-07T01:04:32;12.18;;;4.20;;
25657;SDS011;13517;59.320;18.042;2023-05-07T01:06:58;12.68;;;4.07;;
25657;SDS011;13517;59.320;18.042;2023-05-07T01:09:24;6.45;;;3.70;;
25657;SDS011;13517;59.320;18.042;2023-05-07T01:11:49;12.43;;;4.60;;
25657;SDS011;13517;59.320;18.042;2023-05-07T01:14:15;8.90;;;4.05;;
25657;SDS011;13517;59.320;18.042;2023-05-07T01:16:41;10.73;;;4.70;;
25657;SDS011;13517;59.320;18.042;2023-05-07T01:19:07;9.57;;;4.60;;
25657;SDS011;13517;59.320;18.042;2023-05-07T01:21:33;10.57;;;4.63;;
25657;SDS011;13517;59.320;18.042;2023-05-07T01:23:59;8.80;;;4.55;;
25657;SDS011;13517;59.320;18.042;2023-05-07T01:26:25;11.80;;;5.00;;
25657;SDS011;13517;59.320;18.042;2023-05-07T01:28:50;6.95;;;3.80;;
25657;SDS011;13517;59.320;18.042;2023-05-07T01:31:16;6.40;;;4.20;;
25657;SDS011;13517;59.320;18.042;2023-05-07T01:33:41;11.10;;;4.63;;
25657;SDS011;13517;59.320;18.042;2023-05-07T01:36:08;13.45;;;4.13;;
25657;SDS011;13517;59.320;18.042;2023-05-07T01:38:34;10.77;;;4.25;;
25657;SDS011;13517;59.320;18.042;2023-05-07T01:40:59;9.77;;;4.13;;
25657;SDS011;13517;59.320;18.042;2023-05-07T01:43:25;7.85;;;3.83;;
25657;SDS011;13517;59.320;18.042;2023-05-07T01:45:50;8.65;;;4.07;;
25657;SDS011;13517;59.320;18.042;2023-05-07T01:48:16;11.07;;;4.93;;
25657;SDS011;13517;59.320;18.042;2023-05-07T01:50:42;9.68;;;4.38;;
25657;SDS011;13517;59.320;18.042;2023-05-07T01:53:08;10.82;;;4.75;;
25657;SDS011;13517;59.320;18.042;2023-05-07T01:55:33;7.78;;;4.20;;
25657;SDS011;13517;59.320;18.042;2023-05-07T01:57:58;7.32;;;4.03;;
25657;SDS011;13517;59.320;18.042;2023-05-07T02:00:24;9.30;;;4.00;;
25657;SDS011;13517;59.320;18.042;2023-05-07T02:02:49;13.48;;;4.70;;
25657;SDS011;13517;59.320;18.042;2023-05-07T02:05:14;12.13;;;4.30;;
25657;SDS011;13517;59.320;18.042;2023-05-07T02:07:40;7.55;;;3.60;;
25657;SDS011;13517;59.320;18.042;2023-05-07T02:10:05;7.05;;;3.70;;
25657;SDS011;13517;59.320;18.042;2023-05-07T02:12:31;6.47;;;4.03;;
25657;SDS011;13517;59.320;18.042;2023-05-07T02:14:56;13.98;;;4.45;;
25657;SDS011;13517;59.320;18.042;2023-05-07T02:17:21;6.53;;;4.10;;
25657;SDS011;13517;59.320;18.042;2023-05-07T02:19:46;8.05;;;4.32;;
25657;SDS011;13517;59.320;18.042;2023-05-07T02:22:12;10.48;;;4.05;;
25657;SDS011;13517;59.320;18.042;2023-05-07T02:24:37;8.52;;;4.25;;
25657;SDS011;13517;59.320;18.042;2023-05-07T02:27:02;12.88;;;4.13;;
25657;SDS011;13517;59.320;18.042;2023-05-07T02:29:28;11.18;;;4.50;;
25657;SDS011;13517;59.320;18.042;2023-05-07T02:31:53;8.85;;;4.80;;
25657;SDS011;13517;59.320;18.042;2023-05-07T02:34:19;7.53;;;4.15;;
25657;SDS011;13517;59.320;18.042;2023-05-07T02:36:44;7.40;;;4.40;;
25657;SDS011;13517;59.320;18.042;2023-05-07T02:39:10;11.13;;;4.85;;
25657;SDS011;13517;59.320;18.042;2023-05-07T02:41:36;7.57;;;4.30;;
25657;SDS011;13517;59.320;18.042;2023-05-07T02:44:01;7.32;;;4.68;;
25657;SDS011;13517;59.320;18.042;2023-05-07T02:46:26;12.50;;;4.63;;
25657;SDS011;13517;59.320;18.042;2023-05-07T02:48:51;7.22;;;4.38;;
25657;SDS011;13517;59.320;18.042;2023-05-07T02:51:20;10.38;;;4.75;;
25657;SDS011;13517;59.320;18.042;2023-05-07T02:53:46;9.20;;;4.38;;
25657;SDS011;13517;59.320;18.042;2023-05-07T02:56:11;8.02;;;4.75;;
25657;SDS011;13517;59.320;18.042;2023-05-07T02:58:36;13.48;;;4.30;;
25657;SDS011;13517;59.320;18.042;2023-05-07T03:01:01;9.88;;;4.28;;
25657;SDS011;13517;59.320;18.042;2023-05-07T03:03:27;10.52;;;4.70;;
25657;SDS011;13517;59.320;18.042;2023-05-07T03:05:52;8.82;;;4.97;;
25657;SDS011;13517;59.320;18.042;2023-05-07T03:08:17;11.95;;;5.22;;
25657;SDS011;13517;59.320;18.042;2023-05-07T03:10:43;9.70;;;4.90;;
25657;SDS011;13517;59.320;18.042;2023-05-07T03:13:08;9.60;;;5.40;;
25657;SDS011;13517;59.320;18.042;2023-05-07T03:15:33;10.43;;;4.93;;
25657;SDS011;13517;59.320;18.042;2023-05-07T03:17:58;11.00;;;4.60;;
25657;SDS011;13517;59.320;18.042;2023-05-07T03:20:24;12.77;;;4.78;;
25657;SDS011;13517;59.320;18.042;2023-05-07T03:22:49;12.18;;;4.65;;
25657;SDS011;13517;59.320;18.042;2023-05-07T03:25:15;9.45;;;4.50;;
25657;SDS011;13517;59.320;18.042;2023-05-07T03:27:40;11.70;;;4.85;;
25657;SDS011;13517;59.320;18.042;2023-05-07T03:30:07;5.65;;;3.92;;
25657;SDS011;13517;59.320;18.042;2023-05-07T03:32:32;6.32;;;4.22;;
25657;SDS011;13517;59.320;18.042;2023-05-07T03:34:58;13.55;;;4.68;;
25657;SDS011;13517;59.320;18.042;2023-05-07T03:37:23;8.98;;;4.18;;
25657;SDS011;13517;59.320;18.042;2023-05-07T03:39:48;10.73;;;3.90;;
25657;SDS011;13517;59.320;18.042;2023-05-07T03:42:14;5.57;;;3.33;;
25657;SDS011;13517;59.320;18.042;2023-05-07T03:44:40;8.48;;;4.43;;
25657;SDS011;13517;59.320;18.042;2023-05-07T03:47:05;12.18;;;4.05;;
25657;SDS011;13517;59.320;18.042;2023-05-07T03:49:30;6.53;;;3.78;;
25657;SDS011;13517;59.320;18.042;2023-05-07T03:51:55;7.45;;;3.75;;
25657;SDS011;13517;59.320;18.042;2023-05-07T03:54:21;12.52;;;4.20;;
25657;SDS011;13517;59.320;18.042;2023-05-07T03:56:46;11.70;;;4.38;;
25657;SDS011;13517;59.320;18.042;2023-05-07T03:59:12;11.60;;;4.95;;
25657;SDS011;13517;59.320;18.042;2023-05-07T04:01:38;10.32;;;4.35;;
25657;SDS011;13517;59.320;18.042;2023-05-07T04:04:03;8.52;;;4.28;;
25657;SDS011;13517;59.320;18.042;2023-05-07T04:06:29;10.00;;;3.70;;
25657;SDS011;13517;59.320;18.042;2023-05-07T04:08:54;12.35;;;4.32;;
25657;SDS011;13517;59.320;18.042;2023-05-07T04:11:19;6.43;;;3.83;;
25657;SDS011;13517;59.320;18.042;2023-05-07T04:13:45;6.32;;;4.00;;
25657;SDS011;13517;59.320;18.042;2023-05-07T04:16:10;10.98;;;4.10;;
25657;SDS011;13517;59.320;18.042;2023-05-07T04:18:36;7.60;;;3.40;;
25657;SDS011;13517;59.320;18.042;2023-05-07T04:21:01;8.50;;;4.10;;
25657;SDS011;13517;59.320;18.042;2023-05-07T04:23:26;6.22;;;3.42;;
25657;SDS011;13517;59.320;18.042;2023-05-07T04:25:51;6.05;;;3.58;;
25657;SDS011;13517;59.320;18.042;2023-05-07T04:28:17;7.88;;;3.63;;
25657;SDS011;13517;59.320;18.042;2023-05-07T04:30:42;8.77;;;4.20;;
25657;SDS011;13517;59.320;18.042;2023-05-07T04:33:08;7.88;;;3.20;;
25657;SDS011;13517;59.320;18.042;2023-05-07T04:35:33;8.45;;;3.58;;
25657;SDS011;13517;59.320;18.042;2023-05-07T04:37:58;5.95;;;3.50;;
25657;SDS011;13517;59.320;18.042;2023-05-07T04:40:24;11.48;;;3.75;;
25657;SDS011;13517;59.320;18.042;2023-05-07T04:42:49;5.13;;;3.25;;
25657;SDS011;13517;59.320;18.042;2023-05-07T04:45:14;11.63;;;3.80;;
25657;SDS011;13517;59.320;18.042;2023-05-07T04:47:40;6.13;;;3.63;;
25657;SDS011;13517;59.320;18.042;2023-05-07T04:50:06;6.78;;;3.50;;
25657;SDS011;13517;59.320;18.042;2023-05-07T04:52:31;5.85;;;3.63;;
25657;SDS011;13517;59.320;18.042;2023-05-07T04:54:59;5.63;;;3.53;;
25657;SDS011;13517;59.320;18.042;2023-05-07T04:57:24;9.15;;;3.80;;
25657;SDS011;13517;59.320;18.042;2023-05-07T04:59:49;14.10;;;4.13;;
25657;SDS011;13517;59.320;18.042;2023-05-07T05:02:15;9.63;;;3.92;;
25657;SDS011;13517;59.320;18.042;2023-05-07T05:04:40;10.52;;;3.55;;
25657;SDS011;13517;59.320;18.042;2023-05-07T05:07:05;6.03;;;3.58;;
25657;SDS011;13517;59.320;18.042;2023-05-07T05:09:31;7.75;;;3.10;;
25657;SDS011;13517;59.320;18.042;2023-05-07T05:11:56;7.80;;;3.88;;
25657;SDS011;13517;59.320;18.042;2023-05-07T05:14:21;10.55;;;3.88;;
25657;SDS011;13517;59.320;18.042;2023-05-07T05:16:47;8.93;;;3.70;;
25657;SDS011;13517;59.320;18.042;2023-05-07T05:19:12;9.15;;;3.53;;
25657;SDS011;13517;59.320;18.042;2023-05-07T05:21:37;6.82;;;3.47;;
25657;SDS011;13517;59.320;18.042;2023-05-07T05:24:02;9.00;;;3.63;;
25657;SDS011;13517;59.320;18.042;2023-05-07T05:26:28;6.63;;;3.92;;
25657;SDS011;13517;59.320;18.042;2023-05-07T05:28:54;6.10;;;3.47;;
25657;SDS011;13517;59.320;18.042;2023-05-07T05:31:19;7.18;;;3.67;;
25657;SDS011;13517;59.320;18.042;2023-05-07T05:33:44;8.00;;;3.88;;
25657;SDS011;13517;59.320;18.042;2023-05-07T05:36:10;5.68;;;3.28;;
25657;SDS011;13517;59.320;18.042;2023-05-07T05:38:35;5.38;;;3.15;;
25657;SDS011;13517;59.320;18.042;2023-05-07T05:41:01;5.60;;;3.30;;
25657;SDS011;13517;59.320;18.042;2023-05-07T05:43:26;4.65;;;3.22;;
25657;SDS011;13517;59.320;18.042;2023-05-07T05:45:51;5.90;;;3.00;;
25657;SDS011;13517;59.320;18.042;2023-05-07T05:48:16;6.45;;;3.25;;
25657;SDS011;13517;59.320;18.042;2023-05-07T05:50:42;5.80;;;3.42;;
25657;SDS011;13517;59.320;18.042;2023-05-07T05:53:07;8.43;;;3.33;;
25657;SDS011;13517;59.320;18.042;2023-05-07T05:55:32;11.85;;;4.10;;
25657;SDS011;13517;59.320;18.042;2023-05-07T05:57:59;6.18;;;3.65;;
25657;SDS011;13517;59.320;18.042;2023-05-07T06:00:24;6.45;;;3.83;;
25657;SDS011;13517;59.320;18.042;2023-05-07T06:02:49;5.03;;;3.63;;
25657;SDS011;13517;59.320;18.042;2023-05-07T06:05:14;10.88;;;3.17;;
25657;SDS011;13517;59.320;18.042;2023-05-07T06:07:40;3.95;;;2.70;;
25657;SDS011;13517;59.320;18.042;2023-05-07T06:10:05;5.47;;;2.40;;
25657;SDS011;13517;59.320;18.042;2023-05-07T06:12:31;4.05;;;2.17;;
25657;SDS011;13517;59.320;18.042;2023-05-07T06:14:56;6.88;;;2.40;;
25657;SDS011;13517;59.320;18.042;2023-05-07T06:17:21;4.03;;;2.30;;
25657;SDS011;13517;59.320;18.042;2023-05-07T06:19:47;4.90;;;2.58;;
25657;SDS011;13517;59.320;18.042;2023-05-07T06:22:12;5.78;;;2.45;;
25657;SDS011;13517;59.320;18.042;2023-05-07T06:24:37;4.07;;;2.00;;
25657;SDS011;13517;59.320;18.042;2023-05-07T06:27:02;4.05;;;2.30;;
25657;SDS011;13517;59.320;18.042;2023-05-07T06:29:28;3.17;;;2.10;;
25657;SDS011;13517;59.320;18.042;2023-05-07T06:31:55;4.80;;;2.30;;
25657;SDS011;13517;59.320;18.042;2023-05-07T06:34:20;4.65;;;2.17;;
25657;SDS011;13517;59.320;18.042;2023-05-07T06:36:45;3.88;;;2.00;;
25657;SDS011;13517;59.320;18.042;2023-05-07T06:39:11;4.75;;;2.00;;
25657;SDS011;13517;59.320;18.042;2023-05-07T06:41:36;3.53;;;1.90;;
25657;SDS011;13517;59.320;18.042;2023-05-07T06:44:02;3.95;;;1.65;;
25657;SDS011;13517;59.320;18.042;2023-05-07T06:46:28;5.68;;;1.70;;
25657;SDS011;13517;59.320;18.042;2023-05-07T06:48:53;2.22;;;1.80;;
25657;SDS011;13517;59.320;18.042;2023-05-07T06:51:19;4.13;;;1.88;;
25657;SDS011;13517;59.320;18.042;2023-05-07T06:53:44;3.13;;;1.70;;
25657;SDS011;13517;59.320;18.042;2023-05-07T06:56:09;5.50;;;2.00;;
25657;SDS011;13517;59.320;18.042;2023-05-07T06:58:35;5.47;;;1.90;;
25657;SDS011;13517;59.320;18.042;2023-05-07T07:01:00;3.90;;;1.90;;
25657;SDS011;13517;59.320;18.042;2023-05-07T07:03:25;2.00;;;1.80;;
25657;SDS011;13517;59.320;18.042;2023-05-07T07:05:51;2.65;;;1.90;;
25657;SDS011;13517;59.320;18.042;2023-05-07T07:08:17;4.93;;;1.83;;
25657;SDS011;13517;59.320;18.042;2023-05-07T07:10:43;6.25;;;2.13;;
25657;SDS011;13517;59.320;18.042;2023-05-07T07:13:08;4.32;;;1.88;;
25657;SDS011;13517;59.320;18.042;2023-05-07T07:15:33;3.43;;;2.07;;
25657;SDS011;13517;59.320;18.042;2023-05-07T07:17:58;3.22;;;1.90;;
25657;SDS011;13517;59.320;18.042;2023-05-07T07:20:23;4.38;;;1.90;;
25657;SDS011;13517;59.320;18.042;2023-05-07T07:22:49;4.78;;;2.10;;
25657;SDS011;13517;59.320;18.042;2023-05-07T07:25:14;2.03;;;1.83;;
25657;SDS011;13517;59.320;18.042;2023-05-07T07:27:39;7.15;;;1.80;;
25657;SDS011;13517;59.320;18.042;2023-05-07T07:30:05;3.95;;;1.80;;
25657;SDS011;13517;59.320;18.042;2023-05-07T07:32:30;5.63;;;2.30;;
25657;SDS011;13517;59.320;18.042;2023-05-07T07:34:57;9.60;;;1.80;;
25657;SDS011;13517;59.320;18.042;2023-05-07T07:37:22;5.57;;;2.17;;
25657;SDS011;13517;59.320;18.042;2023-05-07T07:39:50;4.15;;;1.77;;
25657;SDS011;13517;59.320;18.042;2023-05-07T07:42:15;3.95;;;1.50;;
25657;SDS011;13517;59.320;18.042;2023-05-07T07:44:40;4.10;;;1.63;;
25657;SDS011;13517;59.320;18.042;2023-05-07T07:47:06;3.08;;;2.00;;
25657;SDS011;13517;59.320;18.042;2023-05-07T07:49:31;2.93;;;1.63;;
25657;SDS011;13517;59.320;18.042;2023-05-07T07:51:56;4.32;;;1.90;;
25657;SDS011;13517;59.320;18.042;2023-05-07T07:54:24;3.05;;;1.80;;
25657;SDS011;13517;59.320;18.042;2023-05-07T07:56:49;2.42;;;1.83;;
25657;SDS011;13517;59.320;18.042;2023-05-07T07:59:14;3.15;;;1.80;;
25657;SDS011;13517;59.320;18.042;2023-05-07T08:01:43;4.55;;;1.95;;
25657;SDS011;13517;59.320;18.042;2023-05-07T08:04:09;3.50;;;1.63;;
25657;SDS011;13517;59.320;18.042;2023-05-07T08:06:34;5.85;;;1.60;;
25657;SDS011;13517;59.320;18.042;2023-05-07T08:08:59;4.22;;;1.67;;
25657;SDS011;13517;59.320;18.042;2023-05-07T08:11:25;5.05;;;1.52;;
25657;SDS011;13517;59.320;18.042;2023-05-07T08:13:50;6.15;;;2.17;;
25657;SDS011;13517;59.320;18.042;2023-05-07T08:16:15;4.88;;;1.92;;
25657;SDS011;13517;59.320;18.042;2023-05-07T08:18:41;3.67;;;2.38;;
25657;SDS011;13517;59.320;18.042;2023-05-07T08:21:06;3.70;;;1.80;;
25657;SDS011;13517;59.320;18.042;2023-05-07T08:23:31;5.90;;;1.90;;
25657;SDS011;13517;59.320;18.042;2023-05-07T08:25:57;7.63;;;1.90;;
25657;SDS011;13517;59.320;18.042;2023-05-07T08:28:22;4.30;;;1.80;;
25657;SDS011;13517;59.320;18.042;2023-05-07T08:30:49;3.53;;;1.85;;
25657;SDS011;13517;59.320;18.042;2023-05-07T08:33:14;7.60;;;2.08;;
25657;SDS011;13517;59.320;18.042;2023-05-07T08:35:40;2.80;;;1.85;;
25657;SDS011;13517;59.320;18.042;2023-05-07T08:38:05;2.90;;;1.92;;
25657;SDS011;13517;59.320;18.042;2023-05-07T08:40:32;2.17;;;1.90;;
25657;SDS011;13517;59.320;18.042;2023-05-07T08:43:00;2.97;;;1.70;;
25657;SDS011;13517;59.320;18.042;2023-05-07T08:45:27;4.88;;;1.80;;
25657;SDS011;13517;59.320;18.042;2023-05-07T08:47:55;4.53;;;1.85;;
25657;SDS011;13517;59.320;18.042;2023-05-07T08:50:22;4.22;;;1.67;;
25657;SDS011;13517;59.320;18.042;2023-05-07T08:52:47;3.92;;;2.10;;
25657;SDS011;13517;59.320;18.042;2023-05-07T08:55:13;1.90;;;1.63;;
25657;SDS011;13517;59.320;18.042;2023-05-07T08:57:38;3.65;;;1.75;;
25657;SDS011;13517;59.320;18.042;2023-05-07T09:00:04;2.42;;;1.52;;
25657;SDS011;13517;59.320;18.042;2023-05-07T09:02:29;2.80;;;1.60;;
25657;SDS011;13517;59.320;18.042;2023-05-07T09:04:54;3.95;;;1.60;;
25657;SDS011;13517;59.320;18.042;2023-05-07T09:07:20;5.95;;;2.15;;
25657;SDS011;13517;59.320;18.042;2023-05-07T09:09:46;4.47;;;1.85;;
25657;SDS011;13517;59.320;18.042;2023-05-07T09:12:11;3.38;;;2.00;;
25657;SDS011;13517;59.320;18.042;2023-05-07T09:14:36;5.53;;;2.22;;
25657;SDS011;13517;59.320;18.042;2023-05-07T09:17:02;3.70;;;1.90;;
25657;SDS011;13517;59.320;18.042;2023-05-07T09:19:27;2.08;;;1.67;;
25657;SDS011;13517;59.320;18.042;2023-05-07T09:22:02;2.05;;;1.55;;
25657;SDS011;13517;59.320;18.042;2023-05-07T09:24:28;4.45;;;1.80;;
25657;SDS011;13517;59.320;18.042;2023-05-07T09:26:58;4.30;;;1.70;;
25657;SDS011;13517;59.320;18.042;2023-05-07T09:29:25;5.78;;;2.25;;
25657;SDS011;13517;59.320;18.042;2023-05-07T09:31:50;12.23;;;3.25;;
25657;SDS011;13517;59.320;18.042;2023-05-07T09:34:15;10.70;;;2.17;;
25657;SDS011;13517;59.320;18.042;2023-05-07T09:36:41;5.93;;;2.08;;
25657;SDS011;13517;59.320;18.042;2023-05-07T09:39:06;3.15;;;1.83;;
25657;SDS011;13517;59.320;18.042;2023-05-07T09:41:32;4.47;;;1.40;;
25657;SDS011;13517;59.320;18.042;2023-05-07T09:43:57;5.03;;;1.92;;
25657;SDS011;13517;59.320;18.042;2023-05-07T09:46:32;2.80;;;1.67;;
25657;SDS011;13517;59.320;18.042;2023-05-07T09:48:59;2.58;;;1.85;;
25657;SDS011;13517;59.320;18.042;2023-05-07T09:51:30;3.80;;;1.98;;
25657;SDS011;13517;59.320;18.042;2023-05-07T09:53:56;3.15;;;1.85;;
25657;SDS011;13517;59.320;18.042;2023-05-07T09:56:21;4.05;;;1.75;;
25657;SDS011;13517;59.320;18.042;2023-05-07T09:58:48;4.63;;;2.13;;
25657;SDS011;13517;59.320;18.042;2023-05-07T10:01:15;3.50;;;1.73;;
25657;SDS011;13517;59.320;18.042;2023-05-07T10:03:42;3.35;;;1.80;;
25657;SDS011;13517;59.320;18.042;2023-05-07T10:06:09;7.80;;;1.80;;
25657;SDS011;13517;59.320;18.042;2023-05-07T10:08:35;3.35;;;1.85;;
25657;SDS011;13517;59.320;18.042;2023-05-07T10:11:00;3.08;;;1.77;;
25657;SDS011;13517;59.320;18.042;2023-05-07T10:13:26;3.63;;;2.03;;
25657;SDS011;13517;59.320;18.042;2023-05-07T10:15:51;4.10;;;2.08;;
25657;SDS011;13517;59.320;18.042;2023-05-07T10:18:17;3.97;;;1.92;;
25657;SDS011;13517;59.320;18.042;2023-05-07T10:20:43;7.97;;;2.30;;
25657;SDS011;13517;59.320;18.042;2023-05-07T10:23:09;3.53;;;1.98;;
25657;SDS011;13517;59.320;18.042;2023-05-07T10:25:37;8.10;;;1.98;;
25657;SDS011;13517;59.320;18.042;2023-05-07T10:28:05;9.85;;;2.35;;
25657;SDS011;13517;59.320;18.042;2023-05-07T10:33:27;3.78;;;2.30;;
25657;SDS011;13517;59.320;18.042;2023-05-07T10:35:55;5.53;;;2.30;;
25657;SDS011;13517;59.320;18.042;2023-05-07T10:38:22;3.75;;;1.80;;
25657;SDS011;13517;59.320;18.042;2023-05-07T10:40:47;4.90;;;2.30;;
25657;SDS011;13517;59.320;18.042;2023-05-07T10:43:13;9.73;;;2.55;;
25657;SDS011;13517;59.320;18.042;2023-05-07T10:45:38;6.72;;;2.90;;
25657;SDS011;13517;59.320;18.042;2023-05-07T10:50:32;5.63;;;1.75;;
25657;SDS011;13517;59.320;18.042;2023-05-07T10:53:20;3.90;;;2.00;;
25657;SDS011;13517;59.320;18.042;2023-05-07T10:55:46;7.15;;;2.42;;
25657;SDS011;13517;59.320;18.042;2023-05-07T10:58:32;3.30;;;1.98;;
25657;SDS011;13517;59.320;18.042;2023-05-07T11:00:58;3.58;;;2.03;;
25657;SDS011;13517;59.320;18.042;2023-05-07T11:03:24;8.48;;;2.20;;
25657;SDS011;13517;59.320;18.042;2023-05-07T11:06:23;6.95;;;2.00;;
25657;SDS011;13517;59.320;18.042;2023-05-07T11:08:57;4.40;;;1.80;;
25657;SDS011;13517;59.320;18.042;2023-05-07T11:16:32;6.63;;;2.25;;
25657;SDS011;13517;59.320;18.042;2023-05-07T11:19:00;26.67;;;2.17;;
25657;SDS011;13517;59.320;18.042;2023-05-07T11:21:38;6.43;;;1.92;;
25657;SDS011;13517;59.320;18.042;2023-05-07T11:24:05;6.90;;;1.98;;
25657;SDS011;13517;59.320;18.042;2023-05-07T11:26:32;10.32;;;2.20;;
25657;SDS011;13517;59.320;18.042;2023-05-07T11:29:10;9.45;;;2.15;;
25657;SDS011;13517;59.320;18.042;2023-05-07T11:31:35;7.00;;;2.22;;
25657;SDS011;13517;59.320;18.042;2023-05-07T11:34:01;7.10;;;2.20;;
25657;SDS011;13517;59.320;18.042;2023-05-07T11:36:30;8.27;;;1.83;;
25657;SDS011;13517;59.320;18.042;2023-05-07T11:38:55;9.95;;;1.95;;
25657;SDS011;13517;59.320;18.042;2023-05-07T11:41:21;2.92;;;2.47;;
25657;SDS011;13517;59.320;18.042;2023-05-07T11:43:53;7.13;;;1.90;;
25657;SDS011;13517;59.320;18.042;2023-05-07T11:46:20;5.77;;;2.10;;
25657;SDS011;13517;59.320;18.042;2023-05-07T11:48:45;2.63;;;1.90;;
25657;SDS011;13517;59.320;18.042;2023-05-07T11:51:10;6.72;;;1.92;;
25657;SDS011;13517;59.320;18.042;2023-05-07T11:53:41;8.93;;;2.00;;
25657;SDS011;13517;59.320;18.042;2023-05-07T11:56:13;3.05;;;1.98;;
25657;SDS011;13517;59.320;18.042;2023-05-07T11:58:39;7.72;;;2.13;;
25657;SDS011;13517;59.320;18.042;2023-05-07T12:01:06;16.70;;;2.08;;
25657;SDS011;13517;59.320;18.042;2023-05-07T12:03:32;4.90;;;1.90;;
25657;SDS011;13517;59.320;18.042;2023-05-07T12:05:57;6.35;;;1.90;;
25657;SDS011;13517;59.320;18.042;2023-05-07T12:08:24;6.78;;;2.70;;
25657;SDS011;13517;59.320;18.042;2023-05-07T12:10:50;5.63;;;2.30;;
25657;SDS011;13517;59.320;18.042;2023-05-07T12:15:41;5.53;;;2.03;;
25657;SDS011;13517;59.320;18.042;2023-05-07T12:18:07;2.95;;;1.60;;
25657;SDS011;13517;59.320;18.042;2023-05-07T12:20:33;5.43;;;2.20;;
25657;SDS011;13517;59.320;18.042;2023-05-07T12:22:59;5.75;;;1.95;;
25657;SDS011;13517;59.320;18.042;2023-05-07T12:25:24;7.50;;;1.98;;
25657;SDS011;13517;59.320;18.042;2023-05-07T12:27:52;4.25;;;1.85;;
25657;SDS011;13517;59.320;18.042;2023-05-07T12:30:18;12.80;;;2.30;;
25657;SDS011;13517;59.320;18.042;2023-05-07T12:32:44;4.53;;;2.15;;
25657;SDS011;13517;59.320;18.042;2023-05-07T12:35:10;4.85;;;1.88;;
25657;SDS011;13517;59.320;18.042;2023-05-07T12:37:35;4.80;;;1.90;;
25657;SDS011;13517;59.320;18.042;2023-05-07T12:40:10;7.90;;;1.73;;
25657;SDS011;13517;59.320;18.042;2023-05-07T12:42:36;10.63;;;2.38;;
25657;SDS011;13517;59.320;18.042;2023-05-07T12:45:11;2.70;;;1.50;;
25657;SDS011;13517;59.320;18.042;2023-05-07T12:47:36;9.13;;;2.00;;
25657;SDS011;13517;59.320;18.042;2023-05-07T12:50:04;5.28;;;1.98;;
25657;SDS011;13517;59.320;18.042;2023-05-07T12:52:30;2.53;;;1.30;;
25657;SDS011;13517;59.320;18.042;2023-05-07T12:54:56;4.22;;;1.60;;
25657;SDS011;13517;59.320;18.042;2023-05-07T12:57:21;7.05;;;1.80;;
25657;SDS011;13517;59.320;18.042;2023-05-07T12:59:46;11.87;;;3.03;;
25657;SDS011;13517;59.320;18.042;2023-05-07T13:02:12;8.85;;;2.28;;
25657;SDS011;13517;59.320;18.042;2023-05-07T13:04:37;4.65;;;2.15;;
25657;SDS011;13517;59.320;18.042;2023-05-07T13:07:02;6.73;;;1.93;;
25657;SDS011;13517;59.320;18.042;2023-05-07T13:09:28;6.78;;;1.70;;
25657;SDS011;13517;59.320;18.042;2023-05-07T13:11:56;3.75;;;2.08;;
25657;SDS011;13517;59.320;18.042;2023-05-07T13:14:21;4.88;;;1.80;;
25657;SDS011;13517;59.320;18.042;2023-05-07T13:16:47;7.93;;;2.28;;
25657;SDS011;13517;59.320;18.042;2023-05-07T13:19:12;6.97;;;2.05;;
25657;SDS011;13517;59.320;18.042;2023-05-07T13:21:37;5.25;;;1.75;;
25657;SDS011;13517;59.320;18.042;2023-05-07T13:24:02;3.77;;;2.27;;
25657;SDS011;13517;59.320;18.042;2023-05-07T13:26:29;5.50;;;2.13;;
25657;SDS011;13517;59.320;18.042;2023-05-07T13:28:55;5.47;;;2.17;;
25657;SDS011;13517;59.320;18.042;2023-05-07T13:31:20;11.13;;;1.90;;
25657;SDS011;13517;59.320;18.042;2023-05-07T13:33:46;4.40;;;1.90;;
25657;SDS011;13517;59.320;18.042;2023-05-07T13:36:11;8.93;;;2.00;;
25657;SDS011;13517;59.320;18.042;2023-05-07T13:38:36;3.10;;;1.67;;
25657;SDS011;13517;59.320;18.042;2023-05-07T13:41:02;3.97;;;1.57;;
25657;SDS011;13517;59.320;18.042;2023-05-07T13:43:27;7.75;;;2.13;;
25657;SDS011;13517;59.320;18.042;2023-05-07T13:45:52;12.68;;;1.80;;
25657;SDS011;13517;59.320;18.042;2023-05-07T13:48:17;6.32;;;1.73;;
25657;SDS011;13517;59.320;18.042;2023-05-07T13:50:43;7.60;;;1.67;;
25657;SDS011;13517;59.320;18.042;2023-05-07T13:53:08;7.97;;;2.55;;
25657;SDS011;13517;59.320;18.042;2023-05-07T13:55:33;5.60;;;1.65;;
25657;SDS011;13517;59.320;18.042;2023-05-07T13:57:59;8.18;;;1.80;;
25657;SDS011;13517;59.320;18.042;2023-05-07T14:00:25;6.68;;;1.95;;
25657;SDS011;13517;59.320;18.042;2023-05-07T14:02:51;4.88;;;1.85;;
25657;SDS011;13517;59.320;18.042;2023-05-07T14:05:16;3.88;;;1.73;;
25657;SDS011;13517;59.320;18.042;2023-05-07T14:07:42;4.68;;;1.65;;
25657;SDS011;13517;59.320;18.042;2023-05-07T14:10:07;6.13;;;1.65;;
25657;SDS011;13517;59.320;18.042;2023-05-07T14:12:32;3.30;;;1.70;;
25657;SDS011;13517;59.320;18.042;2023-05-07T14:14:58;3.97;;;1.67;;
25657;SDS011;13517;59.320;18.042;2023-05-07T14:17:23;3.92;;;1.88;;
25657;SDS011;13517;59.320;18.042;2023-05-07T14:19:51;3.22;;;1.88;;
25657;SDS011;13517;59.320;18.042;2023-05-07T14:22:19;11.00;;;2.42;;
25657;SDS011;13517;59.320;18.042;2023-05-07T14:24:44;11.40;;;2.10;;
25657;SDS011;13517;59.320;18.042;2023-05-07T14:27:10;3.42;;;1.85;;
25657;SDS011;13517;59.320;18.042;2023-05-07T14:29:35;4.23;;;1.50;;
25657;SDS011;13517;59.320;18.042;2023-05-07T14:32:01;4.97;;;2.05;;
25657;SDS011;13517;59.320;18.042;2023-05-07T14:34:27;4.60;;;1.92;;
25657;SDS011;13517;59.320;18.042;2023-05-07T14:36:52;13.43;;;1.90;;